createdAt,value
2023-01-19T00:00:38.679Z,1.81
2023-01-19T00:06:07.154Z,1.79
2023-01-19T00:11:34.632Z,1.78
2023-01-19T00:16:50.049Z,1.77
2023-01-19T00:22:06.721Z,1.79
2023-01-19T00:27:21.226Z,1.79
2023-01-19T00:32:30.489Z,1.84
2023-01-19T00:38:00.240Z,1.87
2023-01-19T00:43:48.133Z,1.88
2023-01-19T00:49:12.281Z,1.86
2023-01-19T00:54:35.800Z,1.81
2023-01-19T01:00:21.715Z,1.73
2023-01-19T01:05:34.207Z,1.65
2023-01-19T01:11:34.497Z,1.61
2023-01-19T01:17:25.354Z,1.58
2023-01-19T01:23:11.550Z,1.56
2023-01-19T01:28:47.714Z,1.52
2023-01-19T01:34:39.752Z,1.53
2023-01-19T01:40:28.769Z,1.55
2023-01-19T01:46:24.755Z,1.62
2023-01-19T01:53:06.684Z,1.66
2023-01-19T01:58:37.617Z,1.68
2023-01-19T02:04:16.834Z,1.66
2023-01-19T02:10:12.848Z,1.70
2023-01-19T02:16:00.976Z,1.75
2023-01-19T02:22:12.605Z,1.85
2023-01-19T02:27:55.065Z,1.97
2023-01-19T02:34:10.532Z,1.97
2023-01-19T02:40:21.869Z,1.97
2023-01-19T02:46:02.501Z,2.05
2023-01-19T02:52:04.549Z,2.10
2023-01-19T02:58:21.372Z,2.09
2023-01-19T03:04:31.353Z,2.14
2023-01-19T03:10:49.903Z,2.15
2023-01-19T03:16:44.237Z,2.09
2023-01-19T03:22:44.085Z,2.05
2023-01-19T03:28:29.207Z,1.79
2023-01-19T03:34:23.101Z,1.63
2023-01-19T03:40:12.535Z,1.70
2023-01-19T03:45:59.033Z,1.39
2023-01-19T03:51:41.323Z,1.22
2023-01-19T03:56:45.344Z,1.17
2023-01-19T04:02:24.742Z,1.14
2023-01-19T04:07:54.128Z,1.00
2023-01-19T04:13:14.392Z,0.77
2023-01-19T04:18:33.717Z,0.64
2023-01-19T04:24:17.162Z,0.53
2023-01-19T04:29:41.900Z,0.48
2023-01-19T04:35:38.465Z,0.46
2023-01-19T04:40:44.301Z,0.61
2023-01-19T04:46:07.880Z,0.76
2023-01-19T04:51:43.112Z,0.80
2023-01-19T04:56:52.338Z,0.84
2023-01-19T05:02:26.966Z,0.90
2023-01-19T05:07:32.746Z,0.91
2023-01-19T05:12:47.206Z,0.88
2023-01-19T05:17:58.133Z,1.00
2023-01-19T05:23:07.590Z,1.14
2023-01-19T05:28:47.243Z,1.20
2023-01-19T05:34:42.545Z,1.36
2023-01-19T05:39:56.358Z,1.41
2023-01-19T05:46:02.161Z,1.35
2023-01-19T05:51:46.163Z,1.27
2023-01-19T05:56:52.570Z,1.14
2023-01-19T06:02:03.732Z,1.14
2023-01-19T06:07:49.039Z,1.17
2023-01-19T06:12:57.916Z,1.15
2023-01-19T06:18:04.915Z,1.21
2023-01-19T06:23:11.484Z,1.20
2023-01-19T06:28:17.270Z,1.14
2023-01-19T06:33:28.135Z,1.11
2023-01-19T06:38:55.578Z,1.04
2023-01-19T06:44:12.290Z,1.13
2023-01-19T06:49:36.106Z,1.22
2023-01-19T06:54:49.743Z,1.24
2023-01-19T06:59:52.961Z,1.29
2023-01-19T07:05:02.238Z,1.26
2023-01-19T07:10:08.416Z,1.21
2023-01-19T07:15:20.541Z,1.18
2023-01-19T07:20:52.224Z,1.23
2023-01-19T07:25:59.157Z,1.28
2023-01-19T07:31:22.583Z,1.35
2023-01-19T07:36:37.341Z,1.30
2023-01-19T07:41:43.305Z,1.19
2023-01-19T07:46:46.675Z,1.19
2023-01-19T07:51:56.319Z,1.15
2023-01-19T07:57:00.996Z,1.19
2023-01-19T08:02:48.553Z,1.22
2023-01-19T08:07:54.259Z,1.29
2023-01-19T08:13:01.793Z,1.35
2023-01-19T08:18:21.585Z,1.42
2023-01-19T08:23:48.487Z,1.30
2023-01-19T08:28:51.794Z,1.19
2023-01-19T08:34:14.507Z,1.18
2023-01-19T08:39:24.025Z,1.18
2023-01-19T08:44:57.531Z,1.31
2023-01-19T08:50:04.055Z,1.34
2023-01-19T08:55:12.605Z,1.44
2023-01-19T09:01:11.060Z,1.55
2023-01-19T09:06:18.680Z,1.51
2023-01-19T09:11:25.255Z,1.54
2023-01-19T09:16:29.820Z,1.53
2023-01-19T09:21:33.155Z,1.60
2023-01-19T09:26:51.748Z,1.65
2023-01-19T09:32:00.172Z,1.69
2023-01-19T09:37:46.107Z,1.88
2023-01-19T09:43:04.690Z,2.09
2023-01-19T09:48:58.245Z,2.19
2023-01-19T09:54:56.686Z,2.17
2023-01-19T10:00:00.003Z,2.18
2023-01-19T10:05:28.639Z,2.22
2023-01-19T10:10:33.467Z,2.23
2023-01-19T10:15:59.191Z,2.26
2023-01-19T10:21:40.238Z,2.23
2023-01-19T10:26:53.269Z,2.15
2023-01-19T10:32:22.067Z,2.22
2023-01-19T10:38:22.398Z,2.19
2023-01-19T10:44:11.018Z,2.20
2023-01-19T10:50:06.023Z,2.25
2023-01-19T10:55:38.221Z,2.32
2023-01-19T11:00:47.916Z,2.41
2023-01-19T11:06:01.871Z,2.56
2023-01-19T11:11:08.558Z,2.68
2023-01-19T11:16:58.419Z,2.72
2023-01-19T11:23:13.803Z,2.63
2023-01-19T11:28:54.637Z,2.46
2023-01-19T11:34:46.630Z,2.42
2023-01-19T11:40:05.073Z,2.41
2023-01-19T11:45:38.623Z,2.48
2023-01-19T11:51:08.615Z,2.53
2023-01-19T11:56:36.248Z,2.59
2023-01-19T12:01:55.027Z,2.68
2023-01-19T12:07:54.241Z,2.73
2023-01-19T12:13:08.866Z,2.62
2023-01-19T12:19:03.730Z,2.62
2023-01-19T12:25:02.337Z,2.60
2023-01-19T12:30:46.825Z,2.56
2023-01-19T12:36:40.325Z,2.54
2023-01-19T12:41:48.284Z,2.68
2023-01-19T12:47:24.636Z,2.83
2023-01-19T12:52:48.095Z,2.78
2023-01-19T12:58:22.430Z,2.66
2023-01-19T13:03:45.627Z,2.84
2023-01-19T13:09:24.252Z,2.95
2023-01-19T13:14:42.700Z,3.05
2023-01-19T13:19:56.824Z,2.99
2023-01-19T13:25:48.369Z,2.77
2023-01-19T13:31:08.784Z,2.65
2023-01-19T13:36:45.060Z,2.52
2023-01-19T13:42:41.946Z,2.41
2023-01-19T13:47:54.193Z,2.36
2023-01-19T13:53:01.569Z,2.24
2023-01-19T13:58:26.111Z,2.13
2023-01-19T14:03:52.492Z,2.03
2023-01-19T14:09:18.907Z,2.01
2023-01-19T14:14:32.073Z,1.98
2023-01-19T14:19:50.061Z,1.93
2023-01-19T14:24:56.629Z,1.91
2023-01-19T14:30:35.986Z,1.93
2023-01-19T14:35:39.206Z,2.01
2023-01-19T14:40:45.920Z,2.06
2023-01-19T14:45:56.354Z,2.05
2023-01-19T14:51:19.182Z,2.10
2023-01-19T14:56:29.814Z,2.16
2023-01-19T15:01:42.411Z,2.25
2023-01-19T15:06:55.522Z,2.34
2023-01-19T15:12:02.475Z,2.35
2023-01-19T15:17:05.941Z,2.33
2023-01-19T15:22:13.734Z,2.35
2023-01-19T15:27:21.774Z,2.35
2023-01-19T15:32:25.127Z,2.26
2023-01-19T15:37:33.143Z,2.23
2023-01-19T15:42:39.565Z,2.23
2023-01-19T15:47:58.665Z,2.12
2023-01-19T15:53:02.358Z,2.15
2023-01-19T15:58:20.755Z,2.12
2023-01-19T16:03:27.256Z,2.15
2023-01-19T16:08:39.627Z,2.20
2023-01-19T16:13:47.698Z,2.24
2023-01-19T16:19:13.932Z,2.25
2023-01-19T16:24:30.852Z,2.23
2023-01-19T16:29:37.974Z,2.23
2023-01-19T16:34:44.559Z,2.15
2023-01-19T16:39:50.870Z,2.03
2023-01-19T16:45:04.460Z,1.93
2023-01-19T16:50:38.913Z,1.85
2023-01-19T16:55:47.468Z,1.84
2023-01-19T17:00:51.064Z,1.83
2023-01-19T17:05:54.683Z,1.86
2023-01-19T17:11:04.970Z,1.90
2023-01-19T17:16:09.856Z,1.92
2023-01-19T17:21:21.925Z,1.92
2023-01-19T17:26:37.772Z,1.89
2023-01-19T17:31:44.566Z,1.88
2023-01-19T17:37:02.853Z,1.93
2023-01-19T17:42:06.407Z,1.89
2023-01-19T17:47:09.872Z,1.83
2023-01-19T17:52:20.245Z,1.80
2023-01-19T17:57:26.905Z,1.75
2023-01-19T18:02:59.143Z,1.71
2023-01-19T18:08:02.917Z,1.67
2023-01-19T18:13:06.152Z,1.69
2023-01-19T18:18:09.116Z,1.69
2023-01-19T18:23:21.158Z,1.71
2023-01-19T18:28:44.563Z,1.72
2023-01-19T18:33:53.303Z,1.63
2023-01-19T18:39:09.898Z,1.61
2023-01-19T18:44:16.393Z,1.66
2023-01-19T18:49:27.530Z,1.78
2023-01-19T18:54:33.147Z,1.81
2023-01-19T18:59:42.695Z,1.88
2023-01-19T19:04:45.812Z,1.92
2023-01-19T19:09:59.137Z,1.89
2023-01-19T19:15:02.532Z,1.84
2023-01-19T19:20:06.271Z,1.75
2023-01-19T19:25:10.200Z,1.68
2023-01-19T19:30:23.953Z,1.75
2023-01-19T19:35:36.540Z,1.70
2023-01-19T19:40:40.276Z,1.52
2023-01-19T19:45:44.969Z,1.40
2023-01-19T19:50:48.526Z,1.44
2023-01-19T19:56:06.522Z,1.56
2023-01-19T20:01:12.870Z,1.54
2023-01-19T20:06:23.417Z,1.45
2023-01-19T20:12:20.078Z,1.40
2023-01-19T20:17:43.504Z,1.27
2023-01-19T20:23:22.761Z,1.21
2023-01-19T20:29:07.993Z,1.12
2023-01-19T20:34:14.907Z,1.05
2023-01-19T20:39:20.823Z,1.01
2023-01-19T20:44:29.178Z,0.95
2023-01-19T20:49:43.258Z,0.93
2023-01-19T20:55:09.012Z,0.84
2023-01-19T21:01:31.203Z,0.90
2023-01-19T21:07:45.667Z,0.97
2023-01-19T21:13:09.617Z,0.99
2023-01-19T21:18:35.618Z,1.04
2023-01-19T21:23:41.220Z,1.05
2023-01-19T21:28:55.889Z,1.07
2023-01-19T21:33:59.306Z,1.15
2023-01-19T21:39:05.889Z,1.26
2023-01-19T21:44:11.345Z,1.33
2023-01-19T21:50:08.402Z,1.35
2023-01-19T21:55:30.350Z,1.44
2023-01-19T22:07:02.330Z,1.84
2023-01-19T22:12:34.336Z,1.96
2023-01-19T22:18:12.187Z,2.02
2023-01-19T22:23:50.553Z,2.06
2023-01-19T22:29:06.002Z,2.10
2023-01-19T22:34:21.762Z,2.11
2023-01-19T22:40:16.697Z,2.09
2023-01-19T22:45:45.666Z,2.05
2023-01-19T22:50:52.022Z,1.95
2023-01-19T22:56:44.024Z,1.74
2023-01-19T23:03:06.710Z,1.57
2023-01-19T23:08:10.492Z,1.71
2023-01-19T23:13:58.144Z,1.76
2023-01-19T23:19:07.605Z,1.71
2023-01-19T23:24:31.519Z,1.69
2023-01-19T23:29:35.328Z,1.63
2023-01-19T23:35:02.451Z,1.66
2023-01-19T23:40:38.628Z,1.85
2023-01-19T23:45:44.672Z,1.84
2023-01-19T23:51:12.423Z,1.80
2023-01-19T23:57:07.962Z,1.74
